createdAt,value
2018-11-13T00:00:11.334Z,32.53
2018-11-13T00:00:45.562Z,33.70
2018-11-13T00:01:18.168Z,25.95
2018-11-13T00:01:50.794Z,29.12
2018-11-13T00:02:23.426Z,26.52
2018-11-13T00:02:56.587Z,28.62
2018-11-13T00:03:29.183Z,31.37
2018-11-13T00:04:01.803Z,33.02
2018-11-13T00:04:34.383Z,26.15
2018-11-13T00:05:06.988Z,25.32
2018-11-13T00:05:39.654Z,28.23
2018-11-13T00:06:12.310Z,29.00
2018-11-13T00:06:44.923Z,26.80
2018-11-13T00:07:17.564Z,26.90
2018-11-13T00:07:50.179Z,26.30
2018-11-13T00:08:22.858Z,25.37
2018-11-13T00:08:55.473Z,32.38
2018-11-13T00:09:28.076Z,29.57
2018-11-13T00:10:00.690Z,31.20
2018-11-13T00:10:33.287Z,27.65
2018-11-13T00:11:05.919Z,26.10
2018-11-13T00:11:38.665Z,28.25
2018-11-13T00:12:11.220Z,30.57
2018-11-13T00:12:43.804Z,26.23
2018-11-13T00:13:16.439Z,28.25
2018-11-13T00:13:49.050Z,34.30
2018-11-13T00:14:21.698Z,36.85
2018-11-13T00:14:54.303Z,29.45
2018-11-13T00:15:27.575Z,31.55
2018-11-13T00:16:00.168Z,32.42
2018-11-13T00:16:32.828Z,28.30
2018-11-13T00:17:05.486Z,30.15
2018-11-13T00:17:38.452Z,25.27
2018-11-13T00:18:11.070Z,27.77
2018-11-13T00:18:43.670Z,36.77
2018-11-13T00:19:16.275Z,29.92
2018-11-13T00:19:48.876Z,23.65
2018-11-13T00:20:21.553Z,30.25
2018-11-13T00:20:54.188Z,26.45
2018-11-13T00:21:26.827Z,27.10
2018-11-13T00:21:59.451Z,24.20
2018-11-13T00:22:32.047Z,25.45
2018-11-13T00:23:04.962Z,30.97
2018-11-13T00:23:37.556Z,26.33
2018-11-13T00:24:10.236Z,30.62
2018-11-13T00:24:42.852Z,26.35
2018-11-13T00:25:16.716Z,27.70
2018-11-13T00:25:49.348Z,30.60
2018-11-13T00:26:21.974Z,25.68
2018-11-13T00:26:54.594Z,26.20
2018-11-13T00:27:27.310Z,28.67
2018-11-13T00:27:59.923Z,27.35
2018-11-13T00:28:33.298Z,33.63
2018-11-13T00:29:05.919Z,27.90
2018-11-13T00:29:38.524Z,27.75
2018-11-13T00:30:13.612Z,24.85
2018-11-13T00:30:46.245Z,23.83
2018-11-13T00:31:18.870Z,43.25
2018-11-13T00:31:51.467Z,27.50
2018-11-13T00:32:24.112Z,27.48
2018-11-13T00:32:56.776Z,29.30
2018-11-13T00:33:29.395Z,34.40
2018-11-13T00:34:02.009Z,26.25
2018-11-13T00:34:34.639Z,24.90
2018-11-13T00:35:07.322Z,27.35
2018-11-13T00:35:39.958Z,27.73
2018-11-13T00:36:12.595Z,27.75
2018-11-13T00:36:45.183Z,29.27
2018-11-13T00:37:17.829Z,27.45
2018-11-13T00:37:50.993Z,24.07
2018-11-13T00:38:23.643Z,26.65
2018-11-13T00:38:56.295Z,27.82
2018-11-13T00:39:28.940Z,28.52
2018-11-13T00:40:01.543Z,28.00
2018-11-13T00:40:34.131Z,30.23
2018-11-13T00:41:06.792Z,29.80
2018-11-13T00:41:39.470Z,24.67
2018-11-13T00:42:12.090Z,29.00
2018-11-13T00:42:45.427Z,28.62
2018-11-13T00:43:18.014Z,30.20
2018-11-13T00:43:50.627Z,28.52
2018-11-13T00:44:23.206Z,30.75
2018-11-13T00:44:55.811Z,26.37
2018-11-13T00:45:28.519Z,28.42
2018-11-13T00:46:01.223Z,27.58
2018-11-13T00:46:33.756Z,30.10
2018-11-13T00:47:06.364Z,26.10
2018-11-13T00:47:38.998Z,27.87
2018-11-13T00:48:11.664Z,25.27
2018-11-13T00:48:44.258Z,25.12
2018-11-13T00:49:16.891Z,26.73
2018-11-13T00:49:49.507Z,27.32
2018-11-13T00:50:22.098Z,28.92
2018-11-13T00:50:54.744Z,27.00
2018-11-13T00:51:27.337Z,31.70
2018-11-13T00:51:59.993Z,31.48
2018-11-13T00:52:32.727Z,29.35
2018-11-13T00:53:05.542Z,28.12
2018-11-13T00:53:38.166Z,28.87
2018-11-13T00:54:10.751Z,27.85
2018-11-13T00:54:43.593Z,26.27
2018-11-13T00:55:16.235Z,28.85
2018-11-13T00:55:48.892Z,33.58
2018-11-13T00:56:21.523Z,27.62
2018-11-13T00:56:54.127Z,26.95
2018-11-13T00:57:26.726Z,27.20
2018-11-13T00:57:59.318Z,27.90
2018-11-13T00:58:31.910Z,27.52
2018-11-13T00:59:04.656Z,29.15
2018-11-13T00:59:37.308Z,27.05
2018-11-13T01:00:12.179Z,30.82
2018-11-13T01:00:44.790Z,25.60
2018-11-13T01:01:17.401Z,26.75
2018-11-13T01:01:50.054Z,29.30
2018-11-13T01:02:22.694Z,22.85
2018-11-13T01:02:55.307Z,29.27
2018-11-13T01:03:27.887Z,30.82
2018-11-13T01:04:00.496Z,33.02
2018-11-13T01:04:33.123Z,27.35
2018-11-13T01:05:07.696Z,26.45
2018-11-13T01:05:40.297Z,30.23
2018-11-13T01:06:12.911Z,39.27
2018-11-13T01:06:45.497Z,28.50
2018-11-13T01:07:24.851Z,30.48
2018-11-13T01:07:57.470Z,30.65
2018-11-13T01:08:30.079Z,28.32
2018-11-13T01:09:03.596Z,29.60
2018-11-13T01:09:36.200Z,32.08
2018-11-13T01:10:10.498Z,27.17
2018-11-13T01:10:43.186Z,27.73
2018-11-13T01:11:15.929Z,28.23
2018-11-13T01:11:48.964Z,29.00
2018-11-13T01:12:21.679Z,30.57
2018-11-13T01:12:54.350Z,25.68
2018-11-13T01:13:27.170Z,25.30
2018-11-13T01:13:59.727Z,28.15
2018-11-13T01:14:32.333Z,24.98
2018-11-13T01:15:05.825Z,26.82
2018-11-13T01:15:38.378Z,29.90
2018-11-13T01:16:11.042Z,29.00
2018-11-13T01:16:43.647Z,27.70
2018-11-13T01:17:16.299Z,26.00
2018-11-13T01:17:49.367Z,30.77
2018-11-13T01:18:21.971Z,25.52
2018-11-13T01:18:54.588Z,33.13
2018-11-13T01:19:27.215Z,26.82
2018-11-13T01:19:59.793Z,25.72
2018-11-13T01:20:32.417Z,27.93
2018-11-13T01:21:05.079Z,28.73
2018-11-13T01:21:37.668Z,31.85
2018-11-13T01:22:10.571Z,24.80
2018-11-13T01:22:43.155Z,27.60
2018-11-13T01:23:15.722Z,30.17
2018-11-13T01:23:48.415Z,25.65
2018-11-13T01:24:21.010Z,25.50
2018-11-13T01:24:53.595Z,28.80
2018-11-13T01:25:26.199Z,29.57
2018-11-13T01:25:58.780Z,26.10
2018-11-13T01:26:31.394Z,30.77
2018-11-13T01:27:04.023Z,27.07
2018-11-13T01:27:36.632Z,26.15
2018-11-13T01:28:09.208Z,31.77
2018-11-13T01:28:41.778Z,30.82
2018-11-13T01:29:14.379Z,30.00
2018-11-13T01:29:52.630Z,27.00
2018-11-13T01:30:25.258Z,27.55
2018-11-13T01:30:57.822Z,33.08
2018-11-13T01:31:30.430Z,29.12
2018-11-13T01:32:03.043Z,26.42
2018-11-13T01:32:37.783Z,26.27
2018-11-13T01:33:10.406Z,24.90
2018-11-13T01:33:43.067Z,26.35
2018-11-13T01:34:15.666Z,31.80
2018-11-13T01:34:48.230Z,29.12
2018-11-13T01:35:20.836Z,26.40
2018-11-13T01:35:53.427Z,31.07
2018-11-13T01:36:26.040Z,28.27
2018-11-13T01:36:58.698Z,26.73
2018-11-13T01:37:31.272Z,27.20
2018-11-13T01:38:03.917Z,27.15
2018-11-13T01:38:36.534Z,30.08
2018-11-13T01:39:10.290Z,29.07
2018-11-13T01:39:42.882Z,31.73
2018-11-13T01:40:17.963Z,28.87
2018-11-13T01:40:50.543Z,31.02
2018-11-13T01:41:23.156Z,31.10
2018-11-13T01:41:55.793Z,29.63
2018-11-13T01:42:28.403Z,27.95
2018-11-13T01:43:01.016Z,28.70
2018-11-13T01:43:33.627Z,25.15
2018-11-13T01:44:06.523Z,28.42
2018-11-13T01:44:39.152Z,26.10
2018-11-13T01:45:12.982Z,26.12
2018-11-13T01:45:45.546Z,24.65
2018-11-13T01:46:18.178Z,25.15
2018-11-13T01:46:50.791Z,28.05
2018-11-13T01:47:23.371Z,29.42
2018-11-13T01:47:56.030Z,28.07
2018-11-13T01:48:28.601Z,27.32
2018-11-13T01:49:01.244Z,24.92
2018-11-13T01:49:33.916Z,25.65
2018-11-13T01:50:06.946Z,28.05
2018-11-13T01:50:39.523Z,28.57
2018-11-13T01:51:12.130Z,27.30
2018-11-13T01:51:44.698Z,23.20
2018-11-13T01:52:17.336Z,31.50
2018-11-13T01:52:50.019Z,30.82
2018-11-13T01:53:22.616Z,25.75
2018-11-13T01:53:55.258Z,30.48
2018-11-13T01:54:27.969Z,32.88
2018-11-13T01:55:00.486Z,41.33
2018-11-13T01:55:33.098Z,28.15
2018-11-13T01:56:05.762Z,27.87
2018-11-13T01:56:38.338Z,27.45
2018-11-13T01:57:10.943Z,24.80
2018-11-13T01:57:43.553Z,26.05
2018-11-13T01:58:16.135Z,26.00
2018-11-13T01:58:48.764Z,30.70
2018-11-13T01:59:21.560Z,27.02
2018-11-13T01:59:54.163Z,30.12
2018-11-13T02:00:26.792Z,30.25
2018-11-13T02:00:59.421Z,27.35
2018-11-13T02:01:32.039Z,29.55
2018-11-13T02:02:05.091Z,32.60
2018-11-13T02:02:37.662Z,24.65
2018-11-13T02:03:10.240Z,26.30
2018-11-13T02:03:42.843Z,27.37
2018-11-13T02:04:15.460Z,25.45
2018-11-13T02:04:48.023Z,25.97
2018-11-13T02:05:21.910Z,29.15
2018-11-13T02:05:54.529Z,29.48
2018-11-13T02:06:27.126Z,30.92
2018-11-13T02:06:59.722Z,36.85
2018-11-13T02:07:32.276Z,33.15
2018-11-13T02:08:04.921Z,29.25
2018-11-13T02:08:37.510Z,28.92
2018-11-13T02:09:10.547Z,31.55
2018-11-13T02:09:43.172Z,28.65
2018-11-13T02:10:16.213Z,30.17
2018-11-13T02:10:48.837Z,28.32
2018-11-13T02:11:21.456Z,29.98
2018-11-13T02:11:54.060Z,26.50
2018-11-13T02:12:26.680Z,28.15
2018-11-13T02:12:59.246Z,29.57
2018-11-13T02:13:31.827Z,28.65
2018-11-13T02:14:04.485Z,29.85
2018-11-13T02:14:37.108Z,30.88
2018-11-13T02:15:09.925Z,31.05
2018-11-13T02:15:42.536Z,29.18
2018-11-13T02:16:15.147Z,29.40
2018-11-13T02:16:47.760Z,27.05
2018-11-13T02:17:20.387Z,25.82
2018-11-13T02:17:52.996Z,26.55
2018-11-13T02:18:25.591Z,28.52
2018-11-13T02:18:58.187Z,28.17
2018-11-13T02:19:30.747Z,29.23
2018-11-13T02:20:04.665Z,29.30
2018-11-13T02:20:37.234Z,28.52
2018-11-13T02:21:09.824Z,26.30
2018-11-13T02:21:42.466Z,28.07
2018-11-13T02:22:15.039Z,30.75
2018-11-13T02:22:47.650Z,29.32
2018-11-13T02:23:20.238Z,26.57
2018-11-13T02:23:52.830Z,28.80
2018-11-13T02:24:25.406Z,29.42
2018-11-13T02:24:58.051Z,28.42
2018-11-13T02:25:30.662Z,27.55
2018-11-13T02:26:03.290Z,30.77
2018-11-13T02:26:35.874Z,26.10
2018-11-13T02:27:08.566Z,31.15
2018-11-13T02:27:41.797Z,27.15
2018-11-13T02:28:14.390Z,29.65
2018-11-13T02:28:46.959Z,27.50
2018-11-13T02:29:19.544Z,27.48
2018-11-13T02:29:52.151Z,29.72
2018-11-13T02:30:24.801Z,28.07
2018-11-13T02:30:59.872Z,26.12
2018-11-13T02:31:32.508Z,29.67
2018-11-13T02:32:05.127Z,25.77
2018-11-13T02:32:37.997Z,26.87
2018-11-13T02:33:10.586Z,29.05
2018-11-13T02:33:43.172Z,27.22
2018-11-13T02:34:15.805Z,28.90
2018-11-13T02:34:48.440Z,27.93
2018-11-13T02:35:21.042Z,28.77
2018-11-13T02:35:53.599Z,24.60
2018-11-13T02:36:26.199Z,26.17
2018-11-13T02:36:58.795Z,27.80
2018-11-13T02:37:31.419Z,32.42
2018-11-13T02:38:04.052Z,25.95
2018-11-13T02:38:36.677Z,27.82
2018-11-13T02:39:10.127Z,28.42
2018-11-13T02:39:42.741Z,27.40
2018-11-13T02:40:15.400Z,31.45
2018-11-13T02:40:48.019Z,29.05
2018-11-13T02:41:20.598Z,25.17
2018-11-13T02:41:53.182Z,33.20
2018-11-13T02:42:25.804Z,42.45
2018-11-13T02:42:58.421Z,29.10
2018-11-13T02:43:31.088Z,28.20
2018-11-13T02:44:03.866Z,26.60
2018-11-13T02:44:36.432Z,27.55
2018-11-13T02:45:11.499Z,28.40
2018-11-13T02:45:44.092Z,28.92
2018-11-13T02:46:16.873Z,27.13
2018-11-13T02:46:49.733Z,29.92
2018-11-13T02:47:23.116Z,27.13
2018-11-13T02:47:55.746Z,25.60
2018-11-13T02:48:28.345Z,30.12
2018-11-13T02:49:00.979Z,29.05
2018-11-13T02:49:33.602Z,28.05
2018-11-13T02:50:08.197Z,26.23
2018-11-13T02:50:40.770Z,25.50
2018-11-13T02:51:13.368Z,26.42
2018-11-13T02:51:45.927Z,27.93
2018-11-13T02:52:18.515Z,24.90
2018-11-13T02:52:51.246Z,35.70
2018-11-13T02:53:23.822Z,24.43
2018-11-13T02:53:56.419Z,29.07
2018-11-13T02:54:29.026Z,29.57
2018-11-13T02:55:01.640Z,26.00
2018-11-13T02:55:34.210Z,31.87
2018-11-13T02:56:06.818Z,27.80
2018-11-13T02:56:39.382Z,27.35
2018-11-13T02:57:12.000Z,28.07
2018-11-13T02:57:45.381Z,26.68
2018-11-13T02:58:17.982Z,28.87
2018-11-13T02:58:50.594Z,25.80
2018-11-13T02:59:23.208Z,26.05
2018-11-13T02:59:55.787Z,28.83
2018-11-13T03:00:28.387Z,28.27
2018-11-13T03:01:00.950Z,27.87
2018-11-13T03:01:33.522Z,26.62
2018-11-13T03:02:06.491Z,25.77
2018-11-13T03:02:39.128Z,26.85
2018-11-13T03:03:11.723Z,30.82
2018-11-13T03:03:44.380Z,24.82
2018-11-13T03:04:16.988Z,28.70
2018-11-13T03:04:49.929Z,31.55
2018-11-13T03:05:22.526Z,30.70
2018-11-13T03:05:55.118Z,27.32
2018-11-13T03:06:27.718Z,29.95
2018-11-13T03:07:00.327Z,26.70
2018-11-13T03:07:32.903Z,26.95
2018-11-13T03:08:05.519Z,28.92
2018-11-13T03:08:38.087Z,30.08
2018-11-13T03:09:10.704Z,28.00
2018-11-13T03:09:43.320Z,24.37
2018-11-13T03:10:17.091Z,27.85
2018-11-13T03:10:49.736Z,31.57
2018-11-13T03:11:22.330Z,23.92
2018-11-13T03:11:54.923Z,26.77
2018-11-13T03:12:27.537Z,29.98
2018-11-13T03:13:00.119Z,27.77
2018-11-13T03:13:32.704Z,27.32
2018-11-13T03:14:05.565Z,27.13
2018-11-13T03:14:38.142Z,26.33
2018-11-13T03:15:12.240Z,27.35
2018-11-13T03:15:44.857Z,28.15
2018-11-13T03:16:17.455Z,27.60
2018-11-13T03:16:50.055Z,29.20
2018-11-13T03:17:22.611Z,25.10
2018-11-13T03:17:55.284Z,26.20
2018-11-13T03:18:27.850Z,29.55
2018-11-13T03:19:00.453Z,23.40
2018-11-13T03:19:33.080Z,26.30
2018-11-13T03:20:07.995Z,27.22
2018-11-13T03:20:40.579Z,28.85
2018-11-13T03:21:13.130Z,26.30
2018-11-13T03:21:45.962Z,26.02
2018-11-13T03:22:18.698Z,26.00
2018-11-13T03:22:51.274Z,25.95
2018-11-13T03:23:23.863Z,27.00
2018-11-13T03:23:56.462Z,29.12
2018-11-13T03:24:29.081Z,23.52
2018-11-13T03:25:01.693Z,33.98
2018-11-13T03:25:34.319Z,28.70
2018-11-13T03:26:07.077Z,27.55
2018-11-13T03:26:39.690Z,25.95
2018-11-13T03:27:12.287Z,25.40
2018-11-13T03:27:44.905Z,28.38
2018-11-13T03:28:17.510Z,24.63
2018-11-13T03:28:50.115Z,24.50
2018-11-13T03:29:22.714Z,23.98
2018-11-13T03:29:55.307Z,23.95
2018-11-13T03:30:27.884Z,25.30
2018-11-13T03:31:00.516Z,26.82
2018-11-13T03:31:33.235Z,23.07
2018-11-13T03:32:05.741Z,28.85
2018-11-13T03:32:38.346Z,27.05
2018-11-13T03:33:10.975Z,26.55
2018-11-13T03:33:43.591Z,28.52
2018-11-13T03:34:16.208Z,29.87
2018-11-13T03:34:48.833Z,25.77
2018-11-13T03:35:21.439Z,25.48
2018-11-13T03:35:54.012Z,22.62
2018-11-13T03:36:26.599Z,25.97
2018-11-13T03:36:59.194Z,22.30
2018-11-13T03:37:31.814Z,25.35
2018-11-13T03:38:04.494Z,26.25
2018-11-13T03:38:37.063Z,24.72
2018-11-13T03:39:10.748Z,28.95
2018-11-13T03:39:43.357Z,24.05
2018-11-13T03:40:16.277Z,26.27
2018-11-13T03:40:48.868Z,23.42
2018-11-13T03:41:21.473Z,23.30
2018-11-13T03:41:54.111Z,25.37
2018-11-13T03:42:26.700Z,28.00
2018-11-13T03:42:59.316Z,25.12
2018-11-13T03:43:31.955Z,27.02
2018-11-13T03:44:05.055Z,25.23
2018-11-13T03:44:37.650Z,27.55
2018-11-13T03:45:11.160Z,27.27
2018-11-13T03:45:43.834Z,25.72
2018-11-13T03:46:16.448Z,28.83
2018-11-13T03:46:49.057Z,25.05
2018-11-13T03:47:21.623Z,25.77
2018-11-13T03:47:54.205Z,27.02
2018-11-13T03:48:26.840Z,25.43
2018-11-13T03:48:59.495Z,22.82
2018-11-13T03:49:32.109Z,26.85
2018-11-13T03:50:05.771Z,23.73
2018-11-13T03:50:38.346Z,21.05
2018-11-13T03:51:10.959Z,26.42
2018-11-13T03:51:43.567Z,28.23
2018-11-13T03:52:16.147Z,27.48
2018-11-13T03:52:48.999Z,25.70
2018-11-13T03:53:21.741Z,23.35
2018-11-13T03:53:54.338Z,28.25
2018-11-13T03:54:26.994Z,27.82
2018-11-13T03:54:59.578Z,26.48
2018-11-13T03:55:32.158Z,25.20
2018-11-13T03:56:05.302Z,30.27
2018-11-13T03:56:37.896Z,24.25
2018-11-13T03:57:10.518Z,22.37
2018-11-13T03:57:43.835Z,23.50
2018-11-13T03:58:16.430Z,19.98
2018-11-13T03:58:49.011Z,24.50
2018-11-13T03:59:21.598Z,27.85
2018-11-13T03:59:54.214Z,26.68
2018-11-13T04:00:26.827Z,23.32
2018-11-13T04:00:59.442Z,24.25
2018-11-13T04:01:32.018Z,25.15
2018-11-13T04:02:04.647Z,22.95
2018-11-13T04:02:37.586Z,22.05
2018-11-13T04:03:10.215Z,24.67
2018-11-13T04:03:42.826Z,23.70
2018-11-13T04:04:15.486Z,23.32
2018-11-13T04:04:48.063Z,27.87
2018-11-13T04:05:21.358Z,23.27
2018-11-13T04:05:53.943Z,26.35
2018-11-13T04:06:26.522Z,23.52
2018-11-13T04:06:59.106Z,24.30
2018-11-13T04:07:31.686Z,27.32
2018-11-13T04:08:04.334Z,27.52
2018-11-13T04:08:36.920Z,23.50
2018-11-13T04:09:11.454Z,22.73
2018-11-13T04:09:44.076Z,29.65
2018-11-13T04:10:17.526Z,23.95
2018-11-13T04:10:50.185Z,22.77
2018-11-13T04:11:22.782Z,23.30
2018-11-13T04:11:55.436Z,24.77
2018-11-13T04:12:28.039Z,23.57
2018-11-13T04:13:00.666Z,24.15
2018-11-13T04:13:33.319Z,21.12
2018-11-13T04:14:06.071Z,25.40
2018-11-13T04:14:38.710Z,27.75
2018-11-13T04:15:14.638Z,25.00
2018-11-13T04:15:47.252Z,27.27
2018-11-13T04:16:19.874Z,21.93
2018-11-13T04:16:52.446Z,23.73
2018-11-13T04:17:25.046Z,24.87
2018-11-13T04:17:57.646Z,25.45
2018-11-13T04:18:30.254Z,21.80
2018-11-13T04:19:02.860Z,24.85
2018-11-13T04:19:35.465Z,23.15
2018-11-13T04:20:09.963Z,21.73
2018-11-13T04:20:42.540Z,23.07
2018-11-13T04:21:15.169Z,22.75
2018-11-13T04:21:55.250Z,24.43
2018-11-13T04:22:27.827Z,31.55
2018-11-13T04:23:00.459Z,26.05
2018-11-13T04:23:33.047Z,22.95
2018-11-13T04:24:06.079Z,23.22
2018-11-13T04:24:38.659Z,21.82
2018-11-13T04:25:11.259Z,22.32
2018-11-13T04:25:43.850Z,22.60
2018-11-13T04:26:16.446Z,22.73
2018-11-13T04:26:49.006Z,22.75
2018-11-13T04:27:21.625Z,22.10
2018-11-13T04:27:54.242Z,25.57
2018-11-13T04:28:26.843Z,23.30
2018-11-13T04:28:59.460Z,21.73
2018-11-13T04:29:32.072Z,24.50
2018-11-13T04:30:05.502Z,25.82
2018-11-13T04:30:38.137Z,20.35
2018-11-13T04:31:10.722Z,25.85
2018-11-13T04:31:43.318Z,20.72
2018-11-13T04:32:15.898Z,22.20
2018-11-13T04:32:48.533Z,22.73
2018-11-13T04:33:21.148Z,24.02
2018-11-13T04:33:53.738Z,22.32
2018-11-13T04:34:26.315Z,23.98
2018-11-13T04:34:58.891Z,25.45
2018-11-13T04:35:31.521Z,22.50
2018-11-13T04:36:05.176Z,20.68
2018-11-13T04:36:37.789Z,30.35
2018-11-13T04:37:10.397Z,27.00
2018-11-13T04:37:43.044Z,23.35
2018-11-13T04:38:15.642Z,20.68
2018-11-13T04:38:48.206Z,22.93
2018-11-13T04:39:20.814Z,20.52
2018-11-13T04:39:53.382Z,22.10
2018-11-13T04:40:25.987Z,19.00
2018-11-13T04:40:58.560Z,22.95
2018-11-13T04:41:31.170Z,21.82
2018-11-13T04:42:04.345Z,18.70
2018-11-13T04:42:36.975Z,21.30
2018-11-13T04:43:09.563Z,22.60
2018-11-13T04:43:42.184Z,24.15
2018-11-13T04:44:14.833Z,19.62
2018-11-13T04:44:47.415Z,23.25
2018-11-13T04:45:21.382Z,22.30
2018-11-13T04:45:53.968Z,19.77
2018-11-13T04:46:26.566Z,23.22
2018-11-13T04:46:59.142Z,22.22
2018-11-13T04:47:31.736Z,19.95
2018-11-13T04:48:04.594Z,20.25
2018-11-13T04:48:37.212Z,18.70
2018-11-13T04:49:09.858Z,20.92
2018-11-13T04:49:42.485Z,19.55
2018-11-13T04:50:16.199Z,19.67
2018-11-13T04:50:48.775Z,21.82
2018-11-13T04:51:21.424Z,21.30
2018-11-13T04:51:54.009Z,24.80
2018-11-13T04:52:26.611Z,22.62
2018-11-13T04:52:59.232Z,19.87
2018-11-13T04:53:31.948Z,23.45
2018-11-13T04:54:04.874Z,22.50
2018-11-13T04:54:37.514Z,24.70
2018-11-13T04:55:10.574Z,23.02
2018-11-13T04:55:43.155Z,18.98
2018-11-13T04:56:15.751Z,19.07
2018-11-13T04:56:48.318Z,19.73
2018-11-13T04:57:20.938Z,20.08
2018-11-13T04:57:53.513Z,18.23
2018-11-13T04:58:26.071Z,20.45
2018-11-13T04:58:58.708Z,21.93
2018-11-13T04:59:31.280Z,22.20
2018-11-13T05:00:05.959Z,19.98
2018-11-13T05:00:38.546Z,19.10
2018-11-13T05:01:11.167Z,17.42
2018-11-13T05:01:43.747Z,20.40
2018-11-13T05:02:16.334Z,22.82
2018-11-13T05:02:49.017Z,20.50
2018-11-13T05:03:21.589Z,19.42
2018-11-13T05:03:54.186Z,21.33
2018-11-13T05:04:26.760Z,21.95
2018-11-13T05:04:59.376Z,17.95
2018-11-13T05:05:31.974Z,22.98
2018-11-13T05:06:04.959Z,18.73
2018-11-13T05:06:37.554Z,23.12
2018-11-13T05:07:10.151Z,22.50
2018-11-13T05:07:44.866Z,19.92
2018-11-13T05:08:17.455Z,19.73
2018-11-13T05:08:50.042Z,21.20
2018-11-13T05:09:22.637Z,21.25
2018-11-13T05:09:55.262Z,23.22
2018-11-13T05:10:27.839Z,18.70
2018-11-13T05:11:00.436Z,22.70
2018-11-13T05:11:33.008Z,22.37
2018-11-13T05:12:05.588Z,17.87
2018-11-13T05:12:39.052Z,19.65
2018-11-13T05:13:11.619Z,19.60
2018-11-13T05:13:44.194Z,18.90
2018-11-13T05:14:16.804Z,23.02
2018-11-13T05:14:49.402Z,23.20
2018-11-13T05:15:22.025Z,19.60
2018-11-13T05:15:54.636Z,18.48
2018-11-13T05:16:27.269Z,19.10
2018-11-13T05:16:59.856Z,20.77
2018-11-13T05:17:32.487Z,20.52
2018-11-13T05:18:05.628Z,21.20
2018-11-13T05:18:38.266Z,19.77
2018-11-13T05:19:10.897Z,20.37
2018-11-13T05:19:43.448Z,24.27
2018-11-13T05:20:16.780Z,25.20
2018-11-13T05:20:49.362Z,23.73
2018-11-13T05:21:21.924Z,17.87
2018-11-13T05:21:54.527Z,19.07
2018-11-13T05:22:27.094Z,22.65
2018-11-13T05:22:59.733Z,18.15
2018-11-13T05:23:32.327Z,21.73
2018-11-13T05:24:05.256Z,22.45
2018-11-13T05:24:37.835Z,22.20
2018-11-13T05:25:13.492Z,22.73
2018-11-13T05:25:46.084Z,19.02
2018-11-13T05:26:18.715Z,18.62
2018-11-13T05:26:51.279Z,17.82
2018-11-13T05:27:23.903Z,20.05
2018-11-13T05:27:56.467Z,18.17
2018-11-13T05:28:29.058Z,20.30
2018-11-13T05:29:01.643Z,18.23
2018-11-13T05:29:34.236Z,23.22
2018-11-13T05:30:08.704Z,20.52
2018-11-13T05:30:41.274Z,17.75
2018-11-13T05:31:13.875Z,18.02
2018-11-13T05:31:46.610Z,18.90
2018-11-13T05:32:19.207Z,18.25
2018-11-13T05:32:51.861Z,22.75
2018-11-13T05:33:24.446Z,19.00
2018-11-13T05:33:57.039Z,18.82
2018-11-13T05:34:29.640Z,17.90
2018-11-13T05:35:02.250Z,19.15
2018-11-13T05:35:34.831Z,19.67
2018-11-13T05:36:07.474Z,21.65
2018-11-13T05:36:40.063Z,21.35
2018-11-13T05:37:12.652Z,19.35
2018-11-13T05:37:45.906Z,18.80
2018-11-13T05:38:18.535Z,21.70
2018-11-13T05:38:51.147Z,22.07
2018-11-13T05:39:23.745Z,21.27
2018-11-13T05:39:56.385Z,20.12
2018-11-13T05:40:29.004Z,18.15
2018-11-13T05:41:01.615Z,17.65
2018-11-13T05:41:34.234Z,19.62
2018-11-13T05:42:06.798Z,17.57
2018-11-13T05:42:39.658Z,17.95
2018-11-13T05:43:12.223Z,21.60
2018-11-13T05:43:44.850Z,19.67
2018-11-13T05:44:17.468Z,22.02
2018-11-13T05:44:50.056Z,20.77
2018-11-13T05:45:25.036Z,21.20
2018-11-13T05:45:57.751Z,21.20
2018-11-13T05:46:30.335Z,18.50
2018-11-13T05:47:03.002Z,19.02
2018-11-13T05:47:35.603Z,17.45
2018-11-13T05:48:08.212Z,20.75
2018-11-13T05:48:40.791Z,19.70
2018-11-13T05:49:13.395Z,19.20
2018-11-13T05:49:46.006Z,18.70
2018-11-13T05:50:19.151Z,20.30
2018-11-13T05:50:51.812Z,17.75
2018-11-13T05:51:24.427Z,17.17
2018-11-13T05:51:57.008Z,21.45
2018-11-13T05:52:29.608Z,19.98
2018-11-13T05:53:02.248Z,18.45
2018-11-13T05:53:35.004Z,17.12
2018-11-13T05:54:07.574Z,19.42
2018-11-13T05:54:40.166Z,19.15
2018-11-13T05:55:13.462Z,19.12
2018-11-13T05:55:46.081Z,23.52
2018-11-13T05:56:18.694Z,17.50
2018-11-13T05:56:51.336Z,18.20
2018-11-13T05:57:23.964Z,21.93
2018-11-13T05:57:56.563Z,16.52
2018-11-13T05:58:29.255Z,17.77
2018-11-13T05:59:01.857Z,18.67
2018-11-13T05:59:34.507Z,20.92
2018-11-13T06:00:13.545Z,20.40
2018-11-13T06:00:46.144Z,15.32
2018-11-13T06:01:18.746Z,17.52
2018-11-13T06:01:51.342Z,19.85
2018-11-13T06:02:23.940Z,18.10
2018-11-13T06:02:56.502Z,17.55
2018-11-13T06:03:29.119Z,19.42
2018-11-13T06:04:01.711Z,19.87
2018-11-13T06:04:34.312Z,20.88
2018-11-13T06:05:06.896Z,17.87
2018-11-13T06:05:39.498Z,19.85
2018-11-13T06:06:12.075Z,19.50
2018-11-13T06:06:44.672Z,17.73
2018-11-13T06:07:17.312Z,20.40
2018-11-13T06:07:49.882Z,17.48
2018-11-13T06:08:22.459Z,19.90
2018-11-13T06:08:55.078Z,19.15
2018-11-13T06:09:27.682Z,20.32
2018-11-13T06:10:00.264Z,17.37
2018-11-13T06:10:32.838Z,16.70
2018-11-13T06:11:05.479Z,16.20
2018-11-13T06:11:38.151Z,19.45
2018-11-13T06:12:23.406Z,22.75
2018-11-13T06:12:56.014Z,25.30
2018-11-13T06:13:28.589Z,33.55
2018-11-13T06:14:01.219Z,20.75
2018-11-13T06:14:33.791Z,23.32
2018-11-13T06:15:07.115Z,22.45
2018-11-13T06:15:40.254Z,19.42
2018-11-13T06:16:12.874Z,20.40
2018-11-13T06:16:45.529Z,21.45
2018-11-13T06:17:18.921Z,22.35
2018-11-13T06:17:51.535Z,21.52
2018-11-13T06:18:24.137Z,21.87
2018-11-13T06:18:56.695Z,19.45
2018-11-13T06:19:29.300Z,18.00
2018-11-13T06:20:02.054Z,20.65
2018-11-13T06:20:34.659Z,22.75
2018-11-13T06:21:07.239Z,19.10
2018-11-13T06:21:39.862Z,25.52
2018-11-13T06:22:12.434Z,19.92
2018-11-13T06:22:45.048Z,23.47
2018-11-13T06:23:17.691Z,27.98
2018-11-13T06:23:50.248Z,29.90
2018-11-13T06:24:22.874Z,35.20
2018-11-13T06:24:55.472Z,36.40
2018-11-13T06:25:28.068Z,54.27
2018-11-13T06:26:00.663Z,56.73
2018-11-13T06:26:33.231Z,65.90
2018-11-13T06:27:05.831Z,65.45
2018-11-13T06:27:38.939Z,48.63
2018-11-13T06:28:11.552Z,43.30
2018-11-13T06:28:44.102Z,47.00
2018-11-13T06:29:16.687Z,38.55
2018-11-13T06:29:49.279Z,35.38
2018-11-13T06:30:23.301Z,38.15
2018-11-13T06:30:55.881Z,34.70
2018-11-13T06:31:28.487Z,37.15
2018-11-13T06:32:01.100Z,33.08
2018-11-13T06:32:33.727Z,34.00
2018-11-13T06:33:06.343Z,30.72
2018-11-13T06:33:38.936Z,33.63
2018-11-13T06:34:11.513Z,29.85
2018-11-13T06:34:44.082Z,25.57
2018-11-13T06:35:16.647Z,22.80
2018-11-13T06:35:49.239Z,21.87
2018-11-13T06:36:21.839Z,25.82
2018-11-13T06:36:54.465Z,24.35
2018-11-13T06:37:27.080Z,22.42
2018-11-13T06:38:00.696Z,21.50
2018-11-13T06:38:33.357Z,24.00
2018-11-13T06:39:07.871Z,18.95
2018-11-13T06:39:40.436Z,19.67
2018-11-13T06:40:13.026Z,21.55
2018-11-13T06:40:45.619Z,23.27
2018-11-13T06:41:18.182Z,20.62
2018-11-13T06:41:50.782Z,21.10
2018-11-13T06:42:23.385Z,17.37
2018-11-13T06:42:55.965Z,18.55
2018-11-13T06:43:28.567Z,22.27
2018-11-13T06:44:01.171Z,21.93
2018-11-13T06:44:33.765Z,19.92
2018-11-13T06:45:08.174Z,22.13
2018-11-13T06:45:40.730Z,21.60
2018-11-13T06:46:13.303Z,17.25
2018-11-13T06:46:45.866Z,21.20
2018-11-13T06:47:18.447Z,22.60
2018-11-13T06:47:51.474Z,19.65
2018-11-13T06:48:24.080Z,22.45
2018-11-13T06:48:56.722Z,29.90
2018-11-13T06:49:29.290Z,23.50
2018-11-13T06:50:01.891Z,20.27
2018-11-13T06:50:34.500Z,20.62
2018-11-13T06:51:07.055Z,23.75
2018-11-13T06:51:39.615Z,21.52
2018-11-13T06:52:12.279Z,20.45
2018-11-13T06:52:45.568Z,17.92
2018-11-13T06:53:18.132Z,21.37
2018-11-13T06:54:02.306Z,19.30
2018-11-13T06:54:47.683Z,25.35
2018-11-13T06:55:28.079Z,21.62
2018-11-13T06:56:00.712Z,21.95
2018-11-13T06:56:33.302Z,22.73
2018-11-13T06:57:05.885Z,24.07
2018-11-13T06:57:38.486Z,26.25
2018-11-13T06:58:11.092Z,21.45
2018-11-13T06:58:43.676Z,25.48
2018-11-13T06:59:16.275Z,28.40
2018-11-13T06:59:48.847Z,20.30
2018-11-13T07:00:21.442Z,23.70
2018-11-13T07:00:54.047Z,27.67
2018-11-13T07:01:26.642Z,21.75
2018-11-13T07:01:59.263Z,26.27
2018-11-13T07:02:31.914Z,21.93